Latest Weather Observations for North Head

IDN60801

Issued at 5:05 am EDT Friday 31 October 2014 (issued every 30 minutes, with the page automatically refreshed every 10 minutes)

About weather observations | Map of weather stations | Latest weather observations for NSW | Other Formats
Station Details ID: 066197 Name: NORTH HEAD Lat: -33.82 Lon: 151.30 Height: 90.0 m
Data from the previous 72 hours. | See also: Recent months for locations in New South Wales
Date/Time
EDT
Temp
°C
App
Temp
°C
Dew
Point
Rel
Hum
%
Delta-T
°C
Wind Press
QNH
hPa
Press
MSL
hPa
Rain
since 9 am
mm
Dir
 
Spd
km/h
Gust
km/h
Spd
kts
Gust
kts
31/05:00am - - - - - SW 7 9 4 5 - - -
31/04:30am - - - - - SSW 7 9 4 5 - - -
31/04:00am - - - - - S 9 13 5 7 - - -
31/03:30am - - - - - S 6 7 3 4 - - -
31/03:00am - - - - - SW 7 9 4 5 - - -
31/02:30am - - - - - W 9 11 5 6 - - -
31/02:00am - - - - - WNW 9 9 5 5 - - -
31/01:30am - - - - - NNW 7 9 4 5 - - -
31/01:00am - - - - - N 11 15 6 8 - - -
31/12:30am - - - - - NNE 13 17 7 9 - - -
31/12:00am - - - - - NE 11 15 6 8 - - -
 
Date/Time
EDT
Temp
°C
App
Temp
°C
Dew
Point
Rel
Hum
%
Delta-T
°C
Wind Press
QNH
hPa
Press
MSL
hPa
Rain
since 9 am
mm
Dir
 
Spd
km/h
Gust
km/h
Spd
kts
Gust
kts
30/11:30pm - - - - - NE 9 13 5 7 - - -
30/11:00pm - - - - - NNE 13 15 7 8 - - -
30/10:30pm - - - - - N 13 17 7 9 - - -
30/10:00pm - - - - - N 15 20 8 11 - - -
30/09:30pm - - - - - N 17 22 9 12 - - -
30/09:00pm - - - - - N 20 26 11 14 - - -
30/08:30pm - - - - - N 20 28 11 15 - - -
30/08:00pm - - - - - NNE 19 26 10 14 - - -
30/07:30pm - - - - - N 20 30 11 16 - - -
30/07:00pm - - - - - N 20 28 11 15 - - -
30/06:30pm - - - - - N 19 26 10 14 - - -
30/06:00pm - - - - - NNE 20 28 11 15 - - -
30/05:30pm - - - - - NNE 20 28 11 15 - - -
30/05:00pm - - - - - NNE 20 30 11 16 - - -
30/04:30pm - - - - - NNE 20 28 11 15 - - -
30/04:00pm - - - - - NNE 17 24 9 13 - - -
30/03:30pm - - - - - NNE 17 24 9 13 - - -
30/03:00pm - - - - - NNE 13 19 7 10 - - -
30/02:30pm - - - - - NE 11 15 6 8 - - -
30/02:00pm - - - - - NE 13 19 7 10 - - -
30/01:30pm - - - - - NNE 13 17 7 9 - - -
30/01:00pm - - - - - NNE 11 17 6 9 - - -
30/12:30pm - - - - - NNE 9 13 5 7 - - -
30/12:00pm - - - - - NE 7 11 4 6 - - -
30/11:30am - - - - - NNE 7 11 4 6 - - -
30/11:00am - - - - - NE 9 13 5 7 - - -
30/10:30am - - - - - NW 6 11 3 6 - - -
30/10:00am - - - - - W 9 13 5 7 - - -
30/09:30am - - - - - W 6 11 3 6 - - -
30/09:00am - - - - - W 9 13 5 7 - - -
30/08:30am - - - - - W 11 15 6 8 - - -
30/08:00am - - - - - W 11 17 6 9 - - -
30/07:30am - - - - - WNW 7 9 4 5 - - -
30/07:00am - - - - - WNW 7 7 4 4 - - -
30/06:30am - - - - - NW 6 7 3 4 - - -
30/06:00am - - - - - W 6 6 3 3 - - -
30/05:30am - - - - - WNW 6 6 3 3 - - -
30/05:00am - - - - - NW 6 6 3 3 - - -
30/04:30am - - - - - NNW 6 7 3 4 - - -
30/04:00am - - - - - NW 4 6 2 3 - - -
30/03:30am - - - - - W 4 6 2 3 - - -
30/03:00am - - - - - NNW 7 9 4 5 - - -
30/02:30am - - - - - N 9 13 5 7 - - -
30/02:00am - - - - - N 9 15 5 8 - - -
30/01:30am - - - - - NNE 11 17 6 9 - - -
30/01:00am - - - - - NNE 13 19 7 10 - - -
30/12:30am - - - - - NNE 15 22 8 12 - - -
30/12:00am - - - - - NNE 17 24 9 13 - - -
 
Date/Time
EDT
Temp
°C
App
Temp
°C
Dew
Point
Rel
Hum
%
Delta-T
°C
Wind Press
QNH
hPa
Press
MSL
hPa
Rain
since 9 am
mm
Dir
 
Spd
km/h
Gust
km/h
Spd
kts
Gust
kts
29/11:30pm - - - - - NNE 15 26 8 14 - - -
29/11:00pm - - - - - NNE 17 24 9 13 - - -
29/10:30pm - - - - - NNE 19 24 10 13 - - -
29/10:00pm - - - - - NE 17 24 9 13 - - -
29/09:30pm - - - - - NE 15 24 8 13 - - -
29/09:00pm - - - - - NE 15 24 8 13 - - -
29/08:30pm - - - - - NE 15 20 8 11 - - -
29/08:00pm - - - - - NE 17 24 9 13 - - -
29/07:30pm - - - - - NE 19 30 10 16 - - -
29/07:00pm - - - - - NE 17 26 9 14 - - -
29/06:30pm - - - - - ENE 20 32 11 17 - - -
29/06:00pm - - - - - ENE 20 30 11 16 - - -
29/05:30pm - - - - - ENE 20 30 11 16 - - -
29/05:00pm - - - - - ENE 19 28 10 15 - - -
29/04:30pm - - - - - ENE 20 28 11 15 - - -
29/04:00pm - - - - - ENE 20 30 11 16 - - -
29/03:30pm - - - - - ENE 20 30 11 16 - - -
29/03:00pm - - - - - E 17 28 9 15 - - -
29/02:30pm - - - - - E 19 30 10 16 - - -
29/02:00pm - - - - - E 22 32 12 17 - - -
29/01:30pm - - - - - E 22 30 12 16 - - -
29/01:00pm - - - - - ESE 19 26 10 14 - - -
29/12:30pm - - - - - ESE 15 20 8 11 - - -
29/12:00pm - - - - - ESE 15 19 8 10 - - -
29/11:30am - - - - - SSE 17 22 9 12 - - -
29/11:00am - - - - - SSE 15 26 8 14 - - -
29/10:30am - - - - - S 17 24 9 13 - - -
29/10:00am - - - - - SSE 11 22 6 12 - - -
29/09:30am - - - - - SW 9 15 5 8 - - -
29/09:00am - - - - - SW 11 17 6 9 - - -
29/08:30am - - - - - WSW 13 20 7 11 - - -
29/08:00am - - - - - WSW 13 22 7 12 - - -
29/07:30am - - - - - WSW 11 17 6 9 - - -
29/07:00am - - - - - WSW 11 17 6 9 - - -
29/06:30am - - - - - SW 9 13 5 7 - - -
29/06:00am - - - - - SSW 6 9 3 5 - - -
29/05:30am - - - - - W 13 20 7 11 - - -
29/05:00am - - - - - W 13 20 7 11 - - -
29/04:30am - - - - - WSW 15 22 8 12 - - -
29/04:00am - - - - - W 13 19 7 10 - - -
29/03:30am - - - - - WSW 17 26 9 14 - - -
29/03:00am - - - - - SW 11 19 6 10 - - -
29/02:30am - - - - - WSW 11 22 6 12 - - -
29/02:00am - - - - - WSW 15 24 8 13 - - -
29/01:30am - - - - - WSW 19 26 10 14 - - -
29/01:00am - - - - - SW 19 26 10 14 - - -
29/12:30am - - - - - SW 15 24 8 13 - - -
29/12:00am - - - - - WSW 15 22 8 12 - - -
 
Date/Time
EDT
Temp
°C
App
Temp
°C
Dew
Point
Rel
Hum
%
Delta-T
°C
Wind Press
QNH
hPa
Press
MSL
hPa
Rain
since 9 am
mm
Dir
 
Spd
km/h
Gust
km/h
Spd
kts
Gust
kts
28/11:30pm - - - - - WSW 15 26 8 14 - - -
28/11:00pm - - - - - WSW 15 22 8 12 - - -
28/10:30pm - - - - - W 17 26 9 14 - - -
28/10:00pm - - - - - W 15 22 8 12 - - -
28/09:30pm - - - - - W 15 19 8 10 - - -
28/09:00pm - - - - - W 15 20 8 11 - - -
28/08:30pm - - - - - W 19 26 10 14 - - -
28/08:00pm - - - - - W 19 28 10 15 - - -
28/07:30pm - - - - - W 19 30 10 16 - - -
28/07:00pm - - - - - W 17 32 9 17 - - -
28/06:30pm - - - - - W 19 30 10 16 - - -
28/06:00pm - - - - - S 7 17 4 9 - - -
28/05:30pm - - - - - WSW 11 22 6 12 - - -
28/05:00pm - - - - - W 11 19 6 10 - - -
28/04:30pm - - - - - W 19 32 10 17 - - -
28/04:00pm - - - - - W 17 26 9 14 - - -
28/03:30pm - - - - - W 20 35 11 19 - - -
28/03:00pm - - - - - WNW 17 32 9 17 - - -
28/02:30pm - - - - - SW 11 15 6 8 - - -
28/02:00pm - - - - - WNW 9 17 5 9 - - -
28/01:30pm - - - - - WNW 15 24 8 13 - - -
28/01:00pm - - - - - SW 9 13 5 7 - - -
28/12:30pm - - - - - SW 9 13 5 7 - - -
28/12:00pm - - - - - W 11 22 6 12 - - -
28/11:30am - - - - - W 15 22 8 12 - - -
28/11:00am - - - - - WNW 13 20 7 11 - - -
28/10:30am - - - - - WNW 15 20 8 11 - - -
28/10:00am - - - - - WNW 11 19 6 10 - - -
28/09:30am - - - - - NW 11 19 6 10 - - -
28/09:00am - - - - - WNW 11 17 6 9 - - -
28/08:30am - - - - - WNW 11 17 6 9 - - -
28/08:00am - - - - - NW 9 17 5 9 - - -
28/07:30am - - - - - NW 7 11 4 6 - - -
28/07:00am - - - - - NNW 7 11 4 6 - - -
28/06:30am - - - - - NNW 9 13 5 7 - - -
28/06:00am - - - - - N 13 17 7 9 - - -
28/05:30am - - - - - N 9 11 5 6 - - -

Other Formats:

Comma delimited format used in spreadsheet applications
http://www.bom.gov.au/fwo/IDN60801/IDN60801.95768.axf

JavaScript Object Notation format (JSON) in row-major order
http://www.bom.gov.au/fwo/IDN60801/IDN60801.95768.json